Extreme high temperature From: 16-07-2018 05:00 Until: 19:00 warning for: Extreme high temperature Level: Yellow info button
suomi:
Hellevaroitus: Lähivuorokauden aikana on odotettavissa tukalaa hellettä.

svenska:
Varning för värmebölja: Under det närmaste dygnet är den svåra hettan att vänta.

english:
Heat wave warning: Warm weather is expected during the coming 24 hours. 


Thunder radar more information blitzortung!


Löydät sääaseman tiedot myös:

European Weather Network

Finland Weather Exchange

Weather Underground

AWEKAS



Weather Underground säähistoriasivu

Päivittäin yhteenveto Syyskuu 6, 2017 Yksiköt:  Englantilaiset    Metriset   Molemmat
« Edellinen Päivä
Seuraava Päivä »
Päivittäin Viikoittain Kuukausittain Vuosittain Mukautettu
  Korkea: Matala: Keskiarvo:
Lämpötila: TemperatureC °F 0.0 °F 7.7 °F
Kastepiste: DewpointC °F -0.6 °F 4.8 °F
Kosteus: Humidity % 57 % 83 %
Tuulen nopeus: WindSpeedKMH mph 0.0 mph 0.1 mph
Tuulenpuuska: WindSpeedGustKMH mph - -
Tuuli:- - SE
Ilmanpaine: PressurehPa in 1014.8 in -
Sade: 0.0 in    
Historical Graphs
 
 
Taulukkotiedot Syyskuu 6, 2017
Aika Lämpötila Kastepiste Ilmanpaine Tuuli Tuulen nopeus Tuulenpuuska Kosteus Sademäärä (tunneittain)
TemperatureC °F DewpointC °F PressurehPa in Calm     Humidity % HourlyPrecipMM in
00:00 4.9 °F 3.9 °F 1023.9 in Calm     93 % 0.0 in
00:15 4.5 °F 3.5 °F 1023.9 in Calm     93 % 0.0 in
00:30 4.4 °F 3.5 °F 1023.9 in Calm     94 % 0.0 in
00:45 4.3 °F 3.5 °F 1023.6 in Calm   1.6 mph 94 % 0.0 in
01:00 3.8 °F 3.0 °F 1023.6 in Calm     94 % 0.0 in
01:15 3.5 °F 2.6 °F 1023.6 in Calm     94 % 0.0 in
01:30 3.4 °F 2.6 °F 1023.2 in Calm     94 % 0.0 in
01:45 3.2 °F 2.3 °F 1023.2 in Calm     94 % 0.0 in
02:00 3.0 °F 2.1 °F 1023.2 in Calm     94 % 0.0 in
02:15 2.8 °F 2.1 °F 1023.2 in Calm     95 % 0.0 in
02:30 2.7 °F 2.0 °F 1022.9 in Calm     95 % 0.0 in
02:45 2.6 °F 1.8 °F 1022.9 in Calm     95 % 0.0 in
03:00 2.4 °F 1.7 °F 1022.6 in Calm     95 % 0.0 in
03:15 2.2 °F 1.5 °F 1022.6 in Calm     95 % 0.0 in
03:30 2.1 °F 1.4 °F 1022.6 in Calm     95 % 0.0 in
03:45 1.8 °F 1.1 °F 1022.2 in Calm     95 % 0.0 in
04:00 1.6 °F 0.9 °F 1022.2 in Calm     95 % 0.0 in
04:15 1.4 °F 0.7 °F 1022.2 in Calm     95 % 0.0 in
04:30 1.3 °F 0.6 °F 1022.2 in Calm     95 % 0.0 in
04:45 1.2 °F 0.5 °F 1022.2 in Calm     95 % 0.0 in
05:00 1.1 °F 0.3 °F 1021.9 in Calm     95 % 0.0 in
05:15 0.9 °F 0.4 °F 1021.9 in Calm     96 % 0.0 in
05:30 0.8 °F 0.1 °F 1021.9 in Calm     95 % 0.0 in
05:45 0.8 °F 0.1 °F 1021.6 in Calm     95 % 0.0 in
06:00 0.7 °F 0.1 °F 1021.6 in Calm     96 % 0.0 in
06:15 0.5 °F -0.2 °F 1021.6 in Calm     95 % 0.0 in
06:30 0.3 °F -0.2 °F 1021.6 in Calm     96 % 0.0 in
06:45 0.2 °F -0.5 °F 1021.6 in Calm     95 % 0.0 in
07:00 0.1 °F -0.5 °F 1021.2 in Calm     96 % 0.0 in
07:15 0.0 °F -0.6 °F 1021.2 in Calm     96 % 0.0 in
07:30 0.1 °F -0.5 °F 1021.2 in Calm     96 % 0.0 in
07:45 0.2 °F -0.3 °F 1021.2 in Calm     96 % 0.0 in
08:00 0.4 °F -0.1 °F 1021.2 in Calm     96 % 0.0 in
08:15 0.9 °F 0.5 °F 1021.2 in Calm     97 % 0.0 in
08:30 1.6 °F 1.1 °F 1021.2 in Calm     97 % 0.0 in
08:45 2.6 °F 2.1 °F 1021.2 in Calm     97 % 0.0 in
09:00 3.3 °F 2.9 °F 1021.2 in Calm     97 % 0.0 in
09:15 4.2 °F 3.9 °F 1021.2 in Calm   4.8 mph 98 % 0.0 in
09:30 4.8 °F 4.5 °F 1020.9 in Calm     98 % 0.0 in
09:45 5.3 °F 5.0 °F 1020.9 in Calm     98 % 0.0 in
10:00 6.1 °F 5.8 °F 1020.9 in Calm   6.4 mph 98 % 0.0 in
10:15 6.8 °F 6.5 °F 1020.9 in Calm     98 % 0.0 in
10:30 7.8 °F 7.5 °F 1020.5 in Calm   6.4 mph 98 % 0.0 in
10:45 9.0 °F 7.8 °F 1020.5 in Calm   3.2 mph 92 % 0.0 in
11:00 10.1 °F 8.3 °F 1020.2 in Calm   3.2 mph 89 % 0.0 in
11:15 10.8 °F 7.6 °F 1020.2 in Calm   9.7 mph 81 % 0.0 in
11:30 11.4 °F 7.9 °F 1020.2 in ESE 1.6 mph 8.0 mph 79 % 0.0 in
11:45 12.0 °F 7.5 °F 1019.9 in SSE 1.6 mph 9.7 mph 74 % 0.0 in
12:00 12.4 °F 7.7 °F 1019.9 in SSE 1.6 mph 9.7 mph 73 % 0.0 in
12:30 13.4 °F 8.0 °F 1019.5 in Calm   3.2 mph 70 % 0.0 in
12:45 13.7 °F 8.3 °F 1019.2 in East 1.6 mph 8.0 mph 70 % 0.0 in
13:00 13.7 °F 7.5 °F 1018.8 in Calm   8.0 mph 66 % 0.0 in
13:15 13.9 °F 8.1 °F 1018.8 in NNE 1.6 mph 8.0 mph 68 % 0.0 in
13:30 14.4 °F 7.9 °F 1018.5 in Calm   6.4 mph 65 % 0.0 in
13:45 14.7 °F 7.7 °F 1018.2 in SSE 1.6 mph 11.3 mph 63 % 0.0 in
14:00 14.8 °F 8.7 °F 1018.2 in SSE 1.6 mph 8.0 mph 67 % 0.0 in
14:15 14.9 °F 8.1 °F 1017.8 in Calm   8.0 mph 64 % 0.0 in
14:30 15.0 °F 8.9 °F 1017.8 in Calm   9.7 mph 67 % 0.0 in
14:45 15.3 °F 8.6 °F 1017.5 in Calm   8.0 mph 64 % 0.0 in
15:00 15.5 °F 7.8 °F 1017.2 in Calm   6.4 mph 60 % 0.0 in
15:15 15.6 °F 7.8 °F 1017.2 in Calm   6.4 mph 60 % 0.0 in
15:30 15.8 °F 8.0 °F 1016.8 in Calm   6.4 mph 60 % 0.0 in
15:45 16.1 °F 9.1 °F 1016.5 in Calm   4.8 mph 63 % 0.0 in
16:00 16.3 °F 8.7 °F 1016.5 in Calm   3.2 mph 61 % 0.0 in
16:15 16.3 °F 9.2 °F 1016.5 in Calm   8.0 mph 63 % 0.0 in
16:30 16.3 °F 8.8 °F 1016.1 in Calm   3.2 mph 61 % 0.0 in
16:45 16.4 °F 8.6 °F 1016.1 in Calm   4.8 mph 60 % 0.0 in
17:00 16.4 °F 7.8 °F 1015.8 in Calm   1.6 mph 57 % 0.0 in
17:15 16.3 °F 7.7 °F 1015.8 in Calm   4.8 mph 57 % 0.0 in
17:30 16.2 °F 8.6 °F 1015.5 in Calm   3.2 mph 61 % 0.0 in
17:45 15.6 °F 8.3 °F 1015.5 in Calm   1.6 mph 62 % 0.0 in
18:00 15.2 °F 8.2 °F 1015.5 in Calm   1.6 mph 63 % 0.0 in
18:15 14.6 °F 7.6 °F 1015.5 in Calm   3.2 mph 63 % 0.0 in
18:30 14.3 °F 7.8 °F 1015.5 in Calm   6.4 mph 65 % 0.0 in
18:45 13.9 °F 8.1 °F 1015.5 in Calm     68 % 0.0 in
19:00 13.5 °F 8.1 °F 1015.1 in Calm   1.6 mph 70 % 0.0 in
19:15 13.1 °F 7.8 °F 1015.1 in Calm   1.6 mph 70 % 0.0 in
19:30 12.7 °F 7.8 °F 1015.1 in Calm     72 % 0.0 in
19:45 12.3 °F 7.6 °F 1015.1 in Calm     73 % 0.0 in
20:00 11.9 °F 7.6 °F 1015.1 in Calm     75 % 0.0 in
20:15 11.4 °F 7.7 °F 1015.1 in Calm     78 % 0.0 in
20:30 10.6 °F 7.4 °F 1015.1 in Calm     81 % 0.0 in
20:45 9.8 °F 7.0 °F 1015.1 in Calm     83 % 0.0 in
21:00 9.1 °F 6.8 °F 1015.1 in Calm     86 % 0.0 in
21:15 8.4 °F 6.4 °F 1015.1 in Calm     87 % 0.0 in
21:30 7.9 °F 6.0 °F 1015.1 in Calm     88 % 0.0 in
21:45 7.3 °F 5.6 °F 1015.1 in Calm     89 % 0.0 in
22:00 6.9 °F 5.4 °F 1015.1 in Calm     90 % 0.0 in
22:15 6.6 °F 5.2 °F 1015.1 in Calm     91 % 0.0 in
22:30 6.2 °F 4.9 °F 1015.1 in Calm     91 % 0.0 in
22:45 6.0 °F 4.8 °F 1014.8 in Calm     92 % 0.0 in
23:00 5.8 °F 4.7 °F 1014.8 in Calm     93 % 0.0 in
23:15 5.6 °F 4.5 °F 1015.1 in Calm     93 % 0.0 in
23:30 5.3 °F 4.2 °F 1015.1 in Calm     93 % 0.0 in
23:45 5.1 °F 4.0 °F 1014.8 in Calm     93 % 0.0 in
Esan sääasema
Terveisin Weather Underground - 2.75 mb

Alkuperäinen skripti  Jim McMurry - jmcmurry@mwt.net Sovitettu myös templatelle  Wim van der Kuil - Leuven-Template.eu

Laitteet joita käytämme:

Sääasema
Davis VP2

Sääasemaohjelma
Cumulus

Sääaseman tietokone
Asus EeePC

Palveluntarjoaja
Suncomet

Davis VP2

Cumulus

Asus EeePC

Suncomet